createdAt,value
2023-04-13T00:01:09.412Z,98736.25
2023-04-13T00:03:39.719Z,98740.91
2023-04-13T00:06:11.353Z,98738.59
2023-04-13T00:08:42.986Z,98740.75
2023-04-13T00:11:11.614Z,98743.91
2023-04-13T00:13:43.156Z,98749.59
2023-04-13T00:16:13.911Z,98746.25
2023-04-13T00:18:42.521Z,98742.06
2023-04-13T00:21:10.933Z,98741.88
2023-04-13T00:23:39.655Z,98746.06
2023-04-13T00:26:08.159Z,98743.56
2023-04-13T00:28:36.482Z,98752.91
2023-04-13T00:31:05.489Z,98755.91
2023-04-13T00:33:35.550Z,98761.41
2023-04-13T00:36:04.026Z,98764.25
2023-04-13T00:38:32.351Z,98756.22
2023-04-13T00:41:02.292Z,98759.19
2023-04-13T00:43:30.669Z,98760.22
2023-04-13T00:46:00.089Z,98762.03
2023-04-13T00:48:28.735Z,98778.06
2023-04-13T00:50:59.234Z,98776.41
2023-04-13T00:53:27.847Z,98784.56
2023-04-13T00:55:57.244Z,98784.56
2023-04-13T00:58:26.226Z,98788.91
2023-04-13T01:00:54.669Z,98795.25
2023-04-13T01:03:23.176Z,98788.25
2023-04-13T01:06:08.973Z,98787.25
2023-04-13T01:08:41.889Z,98789.91
2023-04-13T01:11:18.810Z,98790.22
2023-04-13T01:13:53.766Z,98790.22
2023-04-13T01:16:24.979Z,98795.56
2023-04-13T01:18:55.164Z,98790.22
2023-04-13T01:21:30.445Z,98792.22
2023-04-13T01:24:18.289Z,98800.41
2023-04-13T01:26:57.358Z,98803.88
2023-04-13T01:29:28.934Z,98801.22
2023-04-13T01:31:58.692Z,98798.88
2023-04-13T01:34:27.533Z,98798.22
2023-04-13T01:36:56.993Z,98800.19
2023-04-13T01:39:27.017Z,98801.88
2023-04-13T01:42:03.889Z,98806.22
2023-04-13T01:44:36.182Z,98801.88
2023-04-13T01:47:16.079Z,98810.69
2023-04-13T01:50:19.594Z,98808.88
2023-04-13T01:53:08.240Z,98807.22
2023-04-13T01:55:42.175Z,98807.38
2023-04-13T01:58:13.645Z,98802.19
2023-04-13T02:00:45.046Z,98801.19
2023-04-13T02:03:16.593Z,98803.84
2023-04-13T02:05:45.241Z,98810.19
2023-04-13T02:08:14.066Z,98811.50
2023-04-13T02:10:47.059Z,98818.69
2023-04-13T02:13:15.483Z,98809.16
2023-04-13T02:15:45.822Z,98819.69
2023-04-13T02:18:14.615Z,98811.84
2023-04-13T02:20:46.442Z,98809.63
2023-04-13T02:23:16.016Z,98814.97
2023-04-13T02:25:47.956Z,98812.47
2023-04-13T02:28:17.971Z,98819.78
2023-04-13T02:30:49.185Z,98819.09
2023-04-13T02:33:19.285Z,98822.09
2023-04-13T02:35:48.945Z,98824.09
2023-04-13T02:38:18.799Z,98825.41
2023-04-13T02:40:55.774Z,98818.53
2023-04-13T02:43:24.315Z,98827.69
2023-04-13T02:45:54.641Z,98827.34
2023-04-13T02:48:25.780Z,98829.03
2023-04-13T02:50:56.399Z,98838.19
2023-04-13T02:53:29.603Z,98836.66
2023-04-13T02:56:02.749Z,98829.97
2023-04-13T02:58:32.593Z,98833.63
2023-04-13T03:01:06.697Z,98834.78
2023-04-13T03:03:36.748Z,98830.59
2023-04-13T03:06:05.544Z,98834.56
2023-04-13T03:08:47.992Z,98828.69
2023-04-13T03:11:26.303Z,98822.84
2023-04-13T03:14:21.559Z,98826.81
2023-04-13T03:16:56.639Z,98828.66
2023-04-13T03:19:29.071Z,98827.97
2023-04-13T03:21:57.496Z,98834.44
2023-04-13T03:24:29.007Z,98834.75
2023-04-13T03:27:02.636Z,98842.22
2023-04-13T03:29:37.233Z,98840.16
2023-04-13T03:32:08.540Z,98841.31
2023-04-13T03:34:44.375Z,98833.78
2023-04-13T03:37:14.751Z,98846.59
2023-04-13T03:39:43.341Z,98850.69
2023-04-13T03:42:16.993Z,98858.31
2023-04-13T03:44:53.233Z,98853.03
2023-04-13T03:47:23.324Z,98859.38
2023-04-13T03:49:52.398Z,98866.31
2023-04-13T03:52:21.456Z,98862.25
2023-04-13T03:54:56.728Z,98864.22
2023-04-13T03:57:27.505Z,98865.19
2023-04-13T03:59:56.979Z,98864.53
2023-04-13T04:02:52.404Z,98864.69
2023-04-13T04:05:28.338Z,98868.63
2023-04-13T04:08:02.574Z,98864.44
2023-04-13T04:10:31.201Z,98861.09
2023-04-13T04:13:00.815Z,98865.88
2023-04-13T04:15:31.260Z,98857.22
2023-04-13T04:18:05.816Z,98863.66
2023-04-13T04:20:35.164Z,98866.63
2023-04-13T04:23:05.222Z,98867.91
2023-04-13T04:25:42.887Z,98873.53
2023-04-13T04:28:16.199Z,98868.50
2023-04-13T04:30:45.885Z,98870.63
2023-04-13T04:33:22.613Z,98870.25
2023-04-13T04:35:52.020Z,98865.34
2023-04-13T04:38:24.816Z,98870.97
2023-04-13T04:40:57.850Z,98873.78
2023-04-13T04:43:29.760Z,98874.38
2023-04-13T04:45:58.910Z,98870.19
2023-04-13T04:48:32.255Z,98877.47
2023-04-13T04:51:00.782Z,98881.63
2023-04-13T04:53:34.364Z,98873.66
2023-04-13T04:56:07.277Z,98875.34
2023-04-13T04:58:46.422Z,98874.53
2023-04-13T05:01:15.671Z,98881.78
2023-04-13T05:03:46.198Z,98878.44
2023-04-13T05:06:32.725Z,98879.56
2023-04-13T05:09:03.742Z,98880.41
2023-04-13T05:11:34.009Z,98889.38
2023-04-13T05:14:04.832Z,98894.97
2023-04-13T05:16:34.436Z,98892.47
2023-04-13T05:19:12.685Z,98894.59
2023-04-13T05:21:55.523Z,98892.38
2023-04-13T05:24:24.902Z,98892.63
2023-04-13T05:26:54.493Z,98894.91
2023-04-13T05:29:24.247Z,98901.50
2023-04-13T05:31:52.803Z,98903.59
2023-04-13T05:34:23.053Z,98896.75
2023-04-13T05:37:05.423Z,98906.53
2023-04-13T05:39:33.959Z,98913.84
2023-04-13T05:42:02.606Z,98913.00
2023-04-13T05:44:34.503Z,98916.63
2023-04-13T05:47:03.589Z,98920.97
2023-04-13T05:49:35.912Z,98929.50
2023-04-13T05:52:06.801Z,98926.84
2023-04-13T05:54:44.080Z,98930.88
2023-04-13T05:57:12.445Z,98931.44
2023-04-13T05:59:45.552Z,98933.69
2023-04-13T06:02:16.236Z,98935.06
2023-04-13T06:04:46.632Z,98934.63
2023-04-13T06:07:16.506Z,98942.59
2023-04-13T06:09:44.834Z,98958.50
2023-04-13T06:12:13.737Z,98969.66
2023-04-13T06:14:43.047Z,98974.31
2023-04-13T06:17:11.500Z,98978.34
2023-04-13T06:19:39.935Z,98979.66
2023-04-13T06:22:09.661Z,98980.66
2023-04-13T06:24:40.666Z,98998.06
2023-04-13T06:27:11.435Z,99005.38
2023-04-13T06:29:41.724Z,99006.69
2023-04-13T06:32:12.295Z,99002.81
2023-04-13T06:34:41.234Z,99011.56
2023-04-13T06:37:11.792Z,99012.38
2023-04-13T06:39:47.317Z,99011.53
2023-04-13T06:42:16.792Z,99003.59
2023-04-13T06:44:59.745Z,99000.25
2023-04-13T06:47:33.640Z,99006.25
2023-04-13T06:50:06.612Z,98990.88
2023-04-13T06:52:39.184Z,98977.94
2023-04-13T06:55:08.117Z,98990.78
2023-04-13T06:57:40.078Z,98982.91
2023-04-13T07:00:26.072Z,98974.63
2023-04-13T07:02:59.286Z,98966.69
2023-04-13T07:05:27.960Z,98969.38
2023-04-13T07:08:03.833Z,98969.13
2023-04-13T07:10:32.741Z,98960.13
2023-04-13T07:13:05.347Z,98963.00
2023-04-13T07:15:34.664Z,98949.06
2023-04-13T07:18:03.225Z,98955.91
2023-04-13T07:20:31.491Z,98945.72
2023-04-13T07:23:00.096Z,98944.38
2023-04-13T07:25:29.861Z,98929.63
2023-04-13T07:27:58.870Z,98926.13
2023-04-13T07:30:27.246Z,98933.66
2023-04-13T07:32:57.457Z,98925.75
2023-04-13T07:35:26.209Z,98914.94
2023-04-13T07:37:54.503Z,98908.72
2023-04-13T07:40:23.674Z,98890.78
2023-04-13T07:42:57.586Z,98888.00
2023-04-13T07:45:27.583Z,98902.16
2023-04-13T07:47:55.719Z,98903.03
2023-04-13T07:50:24.125Z,98895.34
2023-04-13T07:52:53.274Z,98888.50
2023-04-13T07:55:24.594Z,98915.63
2023-04-13T07:57:54.251Z,98914.00
2023-04-13T08:00:24.911Z,98936.66
2023-04-13T08:02:58.350Z,98951.44
2023-04-13T08:05:28.794Z,98971.00
2023-04-13T08:07:58.465Z,98948.41
2023-04-13T08:10:26.686Z,98929.91
2023-04-13T08:12:56.621Z,98922.72
2023-04-13T08:15:27.835Z,98898.00
2023-04-13T08:17:56.782Z,98903.78
2023-04-13T08:20:25.734Z,98898.94
2023-04-13T08:22:56.439Z,98904.53
2023-04-13T08:25:25.181Z,98907.88
2023-04-13T08:27:53.967Z,98904.22
2023-04-13T08:30:22.666Z,98899.94
2023-04-13T08:32:58.424Z,98903.13
2023-04-13T08:35:26.977Z,98917.13
2023-04-13T08:37:55.727Z,98900.53
2023-04-13T08:40:25.568Z,98911.09
2023-04-13T08:42:57.213Z,98893.34
2023-04-13T08:45:28.275Z,98902.72
2023-04-13T08:47:59.674Z,98904.38
2023-04-13T08:50:28.141Z,98906.59
2023-04-13T08:52:57.781Z,98901.59
2023-04-13T08:55:27.675Z,98904.91
2023-04-13T08:58:01.844Z,98904.34
2023-04-13T09:00:31.282Z,98907.84
2023-04-13T09:03:11.123Z,98897.88
2023-04-13T09:05:45.910Z,98902.13
2023-04-13T09:08:17.130Z,98899.34
2023-04-13T09:10:49.245Z,98898.28
2023-04-13T09:13:18.028Z,98894.84
2023-04-13T09:15:50.753Z,98892.75
2023-04-13T09:18:29.475Z,98891.66
2023-04-13T09:21:06.826Z,98899.47
2023-04-13T09:23:35.231Z,98904.13
2023-04-13T09:26:08.103Z,98896.94
2023-04-13T09:28:47.494Z,98896.94
2023-04-13T09:31:16.442Z,98891.38
2023-04-13T09:33:47.654Z,98903.34
2023-04-13T09:36:17.516Z,98901.22
2023-04-13T09:38:46.778Z,98899.06
2023-04-13T09:41:15.038Z,98897.81
2023-04-13T09:43:43.312Z,98894.25
2023-04-13T09:46:15.309Z,98895.34
2023-04-13T09:48:43.746Z,98889.84
2023-04-13T09:51:13.225Z,98894.22
2023-04-13T09:53:43.791Z,98891.50
2023-04-13T09:56:12.545Z,98886.00
2023-04-13T09:58:44.886Z,98892.03
2023-04-13T10:01:15.343Z,98886.53
2023-04-13T10:03:44.618Z,98887.09
2023-04-13T10:06:14.618Z,98897.22
2023-04-13T10:08:43.187Z,98904.38
2023-04-13T10:11:14.650Z,98894.78
2023-04-13T10:13:49.813Z,98900.75
2023-04-13T10:16:42.125Z,98884.66
2023-04-13T10:19:14.010Z,98896.19
2023-04-13T10:21:47.530Z,98894.97
2023-04-13T10:24:17.864Z,98895.94
2023-04-13T10:26:46.405Z,98901.25
2023-04-13T10:29:16.998Z,98911.63
2023-04-13T10:31:47.859Z,98902.19
2023-04-13T10:34:26.539Z,98906.09
2023-04-13T10:36:58.711Z,98904.66
2023-04-13T10:39:28.861Z,98901.31
2023-04-13T10:42:02.148Z,98898.22
2023-04-13T10:44:41.911Z,98902.34
2023-04-13T10:47:11.358Z,98894.44
2023-04-13T10:49:41.062Z,98901.56
2023-04-13T10:52:12.476Z,98902.16
2023-04-13T10:54:42.659Z,98898.09
2023-04-13T10:57:12.330Z,98894.31
2023-04-13T10:59:56.336Z,98893.47
2023-04-13T11:02:28.027Z,98891.16
2023-04-13T11:04:56.899Z,98894.00
2023-04-13T11:07:27.260Z,98894.44
2023-04-13T11:12:30.382Z,98900.94
2023-04-13T11:14:58.682Z,98897.47
2023-04-13T11:17:27.476Z,98894.84
2023-04-13T11:19:57.403Z,98897.38
2023-04-13T11:22:29.075Z,98905.63
2023-04-13T11:25:09.055Z,98909.50
2023-04-13T11:27:38.188Z,98905.50
2023-04-13T11:30:09.819Z,98901.66
2023-04-13T11:32:42.866Z,98892.59
2023-04-13T11:35:14.680Z,98903.03
2023-04-13T11:37:48.792Z,98895.88
2023-04-13T11:40:21.519Z,98919.88
2023-04-13T11:42:51.720Z,98912.19
2023-04-13T11:45:21.851Z,98916.31
2023-04-13T11:47:52.014Z,98922.66
2023-04-13T11:50:21.649Z,98903.81
2023-04-13T11:52:56.910Z,98904.97
2023-04-13T11:55:27.079Z,98904.13
2023-04-13T11:57:56.875Z,98905.22
2023-04-13T12:00:27.147Z,98911.81
2023-04-13T12:05:29.470Z,98904.66
2023-04-13T12:08:00.867Z,98910.28
2023-04-13T12:10:39.362Z,98904.31
2023-04-13T12:18:26.194Z,98902.09
2023-04-13T12:20:57.085Z,98910.09
2023-04-13T12:23:28.113Z,98903.72
2023-04-13T12:25:58.604Z,98910.78
2023-04-13T12:28:34.146Z,98906.81
2023-04-13T12:31:08.251Z,98910.88
2023-04-13T12:33:37.058Z,98908.03
2023-04-13T12:36:06.806Z,98904.31
2023-04-13T12:38:36.944Z,98910.78
2023-04-13T12:41:10.219Z,98899.25
2023-04-13T12:43:38.578Z,98904.53
2023-04-13T12:46:07.243Z,98894.00
2023-04-13T12:48:36.473Z,98891.59
2023-04-13T12:51:05.055Z,98897.28
2023-04-13T12:53:33.588Z,98894.63
2023-04-13T12:56:03.651Z,98897.88
2023-04-13T12:58:31.908Z,98902.22
2023-04-13T13:01:00.654Z,98900.22
2023-04-13T13:03:29.022Z,98899.19
2023-04-13T13:05:57.537Z,98906.31
2023-04-13T13:08:26.310Z,98912.78
2023-04-13T13:10:54.695Z,98909.41
2023-04-13T13:13:24.657Z,98905.31
2023-04-13T13:15:53.081Z,98914.75
2023-04-13T13:18:21.471Z,98908.34
2023-04-13T13:20:53.502Z,98907.25
2023-04-13T13:23:22.066Z,98908.69
2023-04-13T13:26:07.582Z,98914.31
2023-04-13T13:28:41.077Z,98905.78
2023-04-13T13:31:09.581Z,98910.25
2023-04-13T13:33:37.949Z,98904.00
2023-04-13T13:36:06.170Z,98902.16
2023-04-13T13:38:36.337Z,98909.91
2023-04-13T13:41:05.288Z,98905.09
2023-04-13T13:43:34.066Z,98904.44
2023-04-13T13:46:05.573Z,98904.44
2023-04-13T13:48:35.668Z,98904.50
2023-04-13T13:51:23.054Z,98906.97
2023-04-13T13:53:51.766Z,98910.06
2023-04-13T13:56:20.091Z,98902.38
2023-04-13T13:58:48.364Z,98903.19
2023-04-13T14:01:18.512Z,98899.56
2023-04-13T14:03:47.038Z,98894.53
2023-04-13T14:06:15.757Z,98892.66
2023-04-13T14:08:44.165Z,98885.63
2023-04-13T14:11:12.703Z,98884.13
2023-04-13T14:13:41.229Z,98887.63
2023-04-13T14:16:09.631Z,98874.72
2023-04-13T14:18:39.272Z,98880.66
2023-04-13T14:21:07.813Z,98886.34
2023-04-13T14:23:37.687Z,98875.81
2023-04-13T14:26:06.396Z,98904.69
2023-04-13T14:28:36.755Z,98916.91
2023-04-13T14:31:05.674Z,98926.38
2023-04-13T14:33:34.332Z,98931.56
2023-04-13T14:36:04.390Z,98903.66
2023-04-13T14:38:33.626Z,98896.06
2023-04-13T14:41:01.908Z,98895.91
2023-04-13T14:43:30.288Z,98896.06
2023-04-13T14:45:59.125Z,98888.97
2023-04-13T14:48:27.752Z,98877.97
2023-04-13T14:50:56.611Z,98886.25
2023-04-13T14:53:26.425Z,98880.34
2023-04-13T14:55:54.706Z,98876.19
2023-04-13T14:58:23.063Z,98869.47
2023-04-13T15:00:51.311Z,98878.56
2023-04-13T15:03:20.086Z,98875.59
2023-04-13T15:05:49.870Z,98879.25
2023-04-13T15:08:19.783Z,98874.06
2023-04-13T15:10:49.889Z,98884.78
2023-04-13T15:13:18.196Z,98876.25
2023-04-13T15:15:48.187Z,98869.28
2023-04-13T15:18:16.722Z,98866.25
2023-04-13T15:20:45.005Z,98870.16
2023-04-13T15:23:13.359Z,98872.88
2023-04-13T15:25:42.257Z,98871.44
2023-04-13T15:28:12.053Z,98866.31
2023-04-13T15:30:42.614Z,98867.13
2023-04-13T15:33:11.084Z,98868.25
2023-04-13T15:35:39.528Z,98863.03
2023-04-13T15:38:09.396Z,98857.41
2023-04-13T15:40:38.594Z,98853.84
2023-04-13T15:43:07.325Z,98856.69
2023-04-13T15:45:36.993Z,98866.25
2023-04-13T15:48:07.252Z,98848.88
2023-04-13T15:50:35.805Z,98857.13
2023-04-13T15:53:04.112Z,98854.56
2023-04-13T15:55:32.345Z,98850.31
2023-04-13T15:58:03.654Z,98854.41
2023-04-13T16:00:32.152Z,98852.78
2023-04-13T16:03:01.978Z,98851.13
2023-04-13T16:05:31.753Z,98847.56
2023-04-13T16:08:00.196Z,98852.31
2023-04-13T16:10:28.549Z,98844.72
2023-04-13T16:12:56.932Z,98841.19
2023-04-13T16:15:26.317Z,98837.75
2023-04-13T16:17:57.069Z,98833.41
2023-04-13T16:20:28.610Z,98832.31
2023-04-13T16:22:59.468Z,98833.03
2023-04-13T16:25:28.067Z,98823.06
2023-04-13T16:27:56.376Z,98834.09
2023-04-13T16:30:24.661Z,98829.00
2023-04-13T16:32:52.965Z,98832.31
2023-04-13T16:35:21.542Z,98840.94
2023-04-13T16:37:51.115Z,98850.69
2023-04-13T16:40:19.630Z,98842.41
2023-04-13T16:42:47.705Z,98846.56
2023-04-13T16:45:16.305Z,98836.25
2023-04-13T16:47:45.284Z,98844.25
2023-04-13T16:50:13.664Z,98839.53
2023-04-13T16:52:42.345Z,98844.38
2023-04-13T16:55:15.167Z,98835.34
2023-04-13T16:57:44.098Z,98837.50
2023-04-13T17:00:15.081Z,98844.00
2023-04-13T17:02:44.313Z,98838.22
2023-04-13T17:05:13.872Z,98840.25
2023-04-13T17:07:44.263Z,98839.78
2023-04-13T17:10:15.163Z,98844.19
2023-04-13T17:12:43.450Z,98846.44
2023-04-13T17:15:12.242Z,98841.31
2023-04-13T17:17:41.019Z,98836.75
2023-04-13T17:20:10.487Z,98838.25
2023-04-13T17:22:39.440Z,98848.13
2023-04-13T17:25:08.748Z,98847.72
2023-04-13T17:27:38.709Z,98845.94
2023-04-13T17:30:09.013Z,98847.81
2023-04-13T17:32:37.347Z,98844.50
2023-04-13T17:35:06.513Z,98845.53
2023-04-13T17:37:35.157Z,98844.94
2023-04-13T17:40:04.423Z,98843.44
2023-04-13T17:42:32.740Z,98836.41
2023-04-13T17:45:03.207Z,98834.31
2023-04-13T17:47:31.853Z,98831.06
2023-04-13T17:50:00.153Z,98834.19
2023-04-13T17:52:28.234Z,98835.00
2023-04-13T17:54:56.663Z,98837.50
2023-04-13T17:57:25.011Z,98831.84
2023-04-13T17:59:53.489Z,98830.34
2023-04-13T18:02:23.357Z,98831.63
2023-04-13T18:04:51.934Z,98829.13
2023-04-13T18:07:21.880Z,98830.41
2023-04-13T18:09:50.282Z,98831.53
2023-04-13T18:12:18.723Z,98831.88
2023-04-13T18:14:47.039Z,98833.28
2023-04-13T18:17:16.476Z,98837.69
2023-04-13T18:19:47.063Z,98835.97
2023-04-13T18:22:15.424Z,98832.22
2023-04-13T18:24:43.763Z,98837.22
2023-04-13T18:27:12.879Z,98836.41
2023-04-13T18:29:41.309Z,98833.75
2023-04-13T18:32:09.831Z,98830.66
2023-04-13T18:34:40.320Z,98836.69
2023-04-13T18:37:10.984Z,98839.47
2023-04-13T18:39:39.627Z,98840.16
2023-04-13T18:42:08.805Z,98835.84
2023-04-13T18:44:37.087Z,98837.75
2023-04-13T18:47:05.704Z,98843.25
2023-04-13T18:49:34.060Z,98831.22
2023-04-13T18:52:02.646Z,98839.16
2023-04-13T18:54:32.774Z,98833.16
2023-04-13T18:57:01.556Z,98833.81
2023-04-13T18:59:35.370Z,98840.09
2023-04-13T19:02:09.963Z,98840.13
2023-04-13T19:04:45.353Z,98851.31
2023-04-13T19:07:16.062Z,98845.72
2023-04-13T19:09:52.470Z,98840.31
2023-04-13T19:12:27.355Z,98846.94
2023-04-13T19:15:00.962Z,98845.44
2023-04-13T19:17:35.934Z,98850.84
2023-04-13T19:20:10.936Z,98851.41
2023-04-13T19:22:44.363Z,98851.19
2023-04-13T19:25:17.694Z,98851.53
2023-04-13T19:27:52.730Z,98853.50
2023-04-13T19:30:27.434Z,98850.41
2023-04-13T19:32:57.207Z,98857.03
2023-04-13T19:35:26.439Z,98855.53
2023-04-13T19:37:55.248Z,98861.31
2023-04-13T19:40:27.224Z,98856.13
2023-04-13T19:42:55.700Z,98849.97
2023-04-13T19:45:23.767Z,98847.75
2023-04-13T19:47:56.658Z,98846.13
2023-04-13T19:50:26.591Z,98856.81
2023-04-13T19:52:59.719Z,98853.19
2023-04-13T19:55:37.597Z,98854.22
2023-04-13T19:58:12.631Z,98849.84
2023-04-13T20:00:48.908Z,98846.88
2023-04-13T20:03:24.817Z,98844.69
2023-04-13T20:06:01.908Z,98852.06
2023-04-13T20:08:35.676Z,98854.56
2023-04-13T20:11:13.010Z,98852.53
2023-04-13T20:13:47.375Z,98850.69
2023-04-13T20:16:22.809Z,98855.22
2023-04-13T20:18:58.249Z,98854.56
2023-04-13T20:21:32.655Z,98857.44
2023-04-13T20:24:03.014Z,98857.81
2023-04-13T20:26:37.696Z,98861.88
2023-04-13T20:29:10.225Z,98862.63
2023-04-13T20:31:42.028Z,98855.09
2023-04-13T20:34:15.337Z,98867.44
2023-04-13T20:36:48.019Z,98867.19
2023-04-13T20:39:26.579Z,98863.75
2023-04-13T20:42:05.741Z,98864.84
2023-04-13T20:44:46.228Z,98863.41
2023-04-13T20:47:26.762Z,98860.78
2023-04-13T20:50:02.024Z,98863.38
2023-04-13T20:52:35.773Z,98851.66
2023-04-13T20:55:12.154Z,98859.59
2023-04-13T20:57:50.256Z,98853.28
2023-04-13T21:00:29.563Z,98858.88
2023-04-13T21:03:05.562Z,98853.03
2023-04-13T21:05:38.751Z,98862.28
2023-04-13T21:08:12.823Z,98857.91
2023-04-13T21:10:48.264Z,98860.28
2023-04-13T21:13:26.173Z,98866.34
2023-04-13T21:15:59.928Z,98857.88
2023-04-13T21:18:29.739Z,98866.59
2023-04-13T21:20:57.979Z,98854.28
2023-04-13T21:23:31.415Z,98844.94
2023-04-13T21:26:06.007Z,98853.34
2023-04-13T21:28:43.673Z,98845.34
2023-04-13T21:31:18.257Z,98840.53
2023-04-13T21:33:52.841Z,98842.41
2023-04-13T21:39:02.926Z,98836.41
2023-04-13T21:41:34.334Z,98851.13
2023-04-13T21:44:22.284Z,98840.13
2023-04-13T21:46:59.644Z,98848.81
2023-04-13T21:49:32.335Z,98842.13
2023-04-13T21:52:02.254Z,98844.50
2023-04-13T21:54:32.305Z,98844.50
2023-04-13T21:57:01.137Z,98842.47
2023-04-13T21:59:37.559Z,98847.00
2023-04-13T22:02:08.198Z,98841.13
2023-04-13T22:04:44.279Z,98840.66
2023-04-13T22:07:14.573Z,98840.16
2023-04-13T22:09:44.519Z,98839.31
2023-04-13T22:12:14.277Z,98831.28
2023-04-13T22:14:48.760Z,98839.16
2023-04-13T22:17:18.473Z,98831.94
2023-04-13T22:19:47.284Z,98829.44
2023-04-13T22:22:22.777Z,98820.75
2023-04-13T22:24:56.401Z,98822.75
2023-04-13T22:27:24.960Z,98828.44
2023-04-13T22:29:57.146Z,98826.81
2023-04-13T22:32:32.146Z,98814.75
2023-04-13T22:35:02.372Z,98823.78
2023-04-13T22:37:37.916Z,98813.78
2023-04-13T22:40:08.450Z,98809.06
2023-04-13T22:42:39.399Z,98802.72
2023-04-13T22:45:13.781Z,98805.91
2023-04-13T22:47:43.249Z,98800.38
2023-04-13T22:50:13.407Z,98798.06
2023-04-13T22:52:43.182Z,98795.72
2023-04-13T22:55:11.509Z,98797.72
2023-04-13T22:57:41.704Z,98801.41
2023-04-13T23:00:17.203Z,98795.38
2023-04-13T23:02:50.520Z,98800.41
2023-04-13T23:05:25.318Z,98789.03
2023-04-13T23:07:54.811Z,98795.72
2023-04-13T23:10:28.891Z,98795.69
2023-04-13T23:12:58.136Z,98795.84
2023-04-13T23:15:27.893Z,98796.69
2023-04-13T23:17:57.041Z,98791.16
2023-04-13T23:20:25.993Z,98791.78
2023-04-13T23:22:54.284Z,98789.63
2023-04-13T23:25:22.453Z,98790.28
2023-04-13T23:27:50.640Z,98781.56
2023-04-13T23:30:18.664Z,98779.03
2023-04-13T23:32:48.177Z,98781.50
2023-04-13T23:35:16.551Z,98781.19
2023-04-13T23:37:45.526Z,98777.81
2023-04-13T23:40:15.400Z,98778.81
2023-04-13T23:42:43.854Z,98785.31
2023-04-13T23:45:12.389Z,98786.31
2023-04-13T23:47:40.749Z,98786.31
2023-04-13T23:50:11.342Z,98787.81
2023-04-13T23:52:39.719Z,98788.81
2023-04-13T23:55:08.510Z,98788.81
2023-04-13T23:57:37.207Z,98782.13
